Time;durP1;ratioP1;P1;durP2;ratioP2;P2;SDS_P1;SDS_P2;PMS_P1;PMS_P2;Temp;Humidity;BMP_temperature;BMP_pressure;BME280_temperature;BME280_humidity;BME280_pressure;Samples;Min_cycle;Max_cycle;Signal;HPM_P1;HPM_P2
2023/04/03 00:06:31;;;;;;;2.47;1.58;;;3.80;99.90;;;;;;6298000;22;20765;-89
2023/04/03 00:08:57;;;;;;;1.90;1.80;;;3.90;99.90;;;;;;6305093;22;20311;-90
2023/04/03 00:11:23;;;;;;;3.25;1.70;;;3.90;99.90;;;;;;6278293;22;20084;-91
2023/04/03 00:13:49;;;;;;;3.00;1.45;;;3.80;99.90;;;;;;6278244;22;20026;-90
2023/04/03 00:16:15;;;;;;;1.67;1.33;;;3.80;99.90;;;;;;6284583;22;20027;-90
2023/04/03 00:18:41;;;;;;;3.33;1.60;;;3.70;99.90;;;;;;6339169;22;20021;-89
2023/04/03 00:21:08;;;;;;;2.15;1.83;;;3.80;99.90;;;;;;6310289;22;20022;-90
2023/04/03 00:23:34;;;;;;;2.50;1.85;;;3.80;99.90;;;;;;6338897;22;20031;-91
2023/04/03 00:26:00;;;;;;;2.55;1.60;;;3.80;99.90;;;;;;6339184;22;20014;-91
2023/04/03 00:28:26;;;;;;;2.30;1.35;;;3.80;99.90;;;;;;6340059;22;20045;-91
2023/04/03 00:30:52;;;;;;;8.63;1.73;;;3.80;99.90;;;;;;6338048;22;20018;-90
2023/04/03 00:33:21;;;;;;;5.15;1.73;;;3.70;99.90;;;;;;6338841;22;20629;-90
2023/04/03 00:35:48;;;;;;;3.25;1.77;;;3.70;99.90;;;;;;6339345;22;20019;-90
2023/04/03 00:38:14;;;;;;;1.88;1.73;;;3.70;99.90;;;;;;6338054;22;20019;-90
2023/04/03 00:40:44;;;;;;;1.85;1.50;;;3.70;99.90;;;;;;6339331;22;20015;-90
2023/04/03 00:43:18;;;;;;;3.08;2.10;;;3.60;99.90;;;;;;6339951;22;20067;-90
2023/04/03 00:45:46;;;;;;;2.25;1.80;;;3.60;99.90;;;;;;6312187;22;20019;-90
2023/04/03 00:48:16;;;;;;;2.95;1.70;;;3.60;99.90;;;;;;6339559;22;20021;-90
2023/04/03 00:50:44;;;;;;;2.53;2.33;;;3.60;99.90;;;;;;6340302;22;20023;-89
2023/04/03 00:53:14;;;;;;;4.60;2.20;;;3.50;99.90;;;;;;6339572;22;20015;-90
2023/04/03 00:55:41;;;;;;;4.68;2.20;;;3.50;99.90;;;;;;6338959;22;20066;-89
2023/04/03 00:58:08;;;;;;;2.03;1.75;;;3.60;99.90;;;;;;6309513;22;20023;-88
2023/04/03 01:00:35;;;;;;;1.92;1.73;;;3.50;99.90;;;;;;6334686;22;20311;-89
2023/04/03 01:03:01;;;;;;;4.90;2.72;;;3.40;99.90;;;;;;6308567;22;20076;-88
2023/04/03 01:05:27;;;;;;;4.40;1.90;;;3.50;99.90;;;;;;6308339;22;20341;-88
2023/04/03 01:07:53;;;;;;;4.60;1.95;;;3.50;99.90;;;;;;6329025;22;20034;-88
2023/04/03 01:10:20;;;;;;;1.95;1.73;;;3.50;99.90;;;;;;6336362;22;20018;-88
2023/04/03 01:12:48;;;;;;;6.13;2.28;;;3.50;99.90;;;;;;6337160;22;20026;-89
2023/04/03 01:15:26;;;;;;;2.42;2.22;;;3.50;99.90;;;;;;6340443;22;20015;-88
2023/04/03 01:17:57;;;;;;;2.35;1.63;;;3.40;99.90;;;;;;6339680;22;20018;-90
2023/04/03 01:20:31;;;;;;;2.10;1.90;;;3.40;99.90;;;;;;6337876;22;20102;-90
2023/04/03 01:23:09;;;;;;;3.22;1.77;;;3.50;99.90;;;;;;6337514;22;20019;-88
2023/04/03 01:25:49;;;;;;;4.90;1.98;;;3.40;99.90;;;;;;6337554;22;20026;-90
2023/04/03 01:28:27;;;;;;;2.83;1.83;;;3.40;99.90;;;;;;6338412;22;20072;-89
2023/04/03 01:31:30;;;;;;;2.10;1.83;;;3.30;99.90;;;;;;6338479;22;20018;-90
2023/04/03 01:33:56;;;;;;;1.92;1.70;;;3.40;99.90;;;;;;6337066;22;20322;-89
2023/04/03 01:36:24;;;;;;;7.82;2.60;;;3.30;99.90;;;;;;6336049;22;20094;-88
2023/04/03 01:38:51;;;;;;;3.50;1.90;;;3.30;99.90;;;;;;6335328;22;20481;-88
2023/04/03 01:41:17;;;;;;;2.75;2.03;;;3.30;99.90;;;;;;6336883;22;20006;-90
2023/04/03 01:43:43;;;;;;;4.07;2.05;;;3.30;99.90;;;;;;6337014;22;20115;-89
2023/04/03 01:46:09;;;;;;;5.85;2.03;;;3.30;99.90;;;;;;6336587;22;20103;-89
2023/04/03 01:48:34;;;;;;;4.28;2.13;;;3.30;99.90;;;;;;6337021;22;20087;-89
2023/04/03 01:51:00;;;;;;;4.38;2.15;;;3.30;99.90;;;;;;6334815;22;20026;-89
2023/04/03 01:53:26;;;;;;;5.43;2.58;;;3.20;99.90;;;;;;6335000;22;20084;-91
2023/04/03 01:55:52;;;;;;;9.98;2.45;;;3.20;99.90;;;;;;6336179;22;20027;-90
2023/04/03 01:58:18;;;;;;;3.60;2.20;;;3.20;99.90;;;;;;6337721;22;20093;-89
2023/04/03 02:00:43;;;;;;;3.58;2.30;;;3.20;99.90;;;;;;6336501;22;20026;-89
2023/04/03 02:03:09;;;;;;;5.07;2.38;;;3.20;99.90;;;;;;6337024;22;20023;-89
2023/04/03 02:05:35;;;;;;;4.50;2.42;;;3.20;99.90;;;;;;6338842;22;20023;-91
2023/04/03 02:08:01;;;;;;;3.75;2.08;;;3.30;99.90;;;;;;6364601;22;20696;-89
2023/04/03 02:10:27;;;;;;;4.47;2.10;;;3.10;99.90;;;;;;6369128;22;20072;-88
2023/04/03 02:12:52;;;;;;;3.70;2.05;;;3.10;99.90;;;;;;6339972;22;20098;-87
2023/04/03 02:15:18;;;;;;;3.92;1.92;;;3.10;99.90;;;;;;6367100;22;20027;-88
2023/04/03 02:17:44;;;;;;;3.97;2.60;;;3.10;99.90;;;;;;6338952;22;20025;-87
2023/04/03 02:20:10;;;;;;;4.75;2.47;;;3.10;99.90;;;;;;6313403;22;20033;-88
2023/04/03 02:22:36;;;;;;;3.95;2.35;;;3.10;99.90;;;;;;6339498;22;20022;-87
2023/04/03 02:25:02;;;;;;;4.00;2.30;;;3.10;99.90;;;;;;6367475;22;20049;-88
2023/04/03 02:27:28;;;;;;;5.72;2.50;;;3.10;99.90;;;;;;6340668;22;20090;-89
2023/04/03 02:29:54;;;;;;;5.10;2.35;;;3.00;99.90;;;;;;6368794;22;20037;-88
2023/04/03 02:32:19;;;;;;;7.35;2.78;;;3.00;99.90;;;;;;6340416;22;20459;-88
2023/04/03 02:34:45;;;;;;;5.47;2.13;;;3.00;99.90;;;;;;6367341;22;20143;-87
2023/04/03 02:37:11;;;;;;;2.72;2.10;;;3.10;99.90;;;;;;6369423;22;20161;-86
2023/04/03 02:39:37;;;;;;;4.10;2.20;;;2.90;99.90;;;;;;6367871;22;20021;-88
2023/04/03 02:42:03;;;;;;;5.97;2.80;;;2.90;99.90;;;;;;6368256;22;20014;-89
2023/04/03 02:44:29;;;;;;;3.08;2.30;;;2.90;99.90;;;;;;6366691;22;20333;-88
2023/04/03 02:46:55;;;;;;;3.22;1.83;;;2.90;99.90;;;;;;6337952;22;20022;-88
2023/04/03 02:49:20;;;;;;;5.75;2.25;;;3.00;99.90;;;;;;6338036;22;20094;-86
2023/04/03 02:51:47;;;;;;;5.65;2.05;;;3.00;99.90;;;;;;6366120;22;20019;-86
2023/04/03 02:54:13;;;;;;;6.80;2.58;;;2.90;99.90;;;;;;6365750;22;20075;-87
2023/04/03 02:56:39;;;;;;;2.83;1.90;;;2.90;99.90;;;;;;6366054;22;20089;-87
2023/04/03 02:59:05;;;;;;;3.60;2.10;;;2.90;99.90;;;;;;6337106;22;20060;-86
2023/04/03 03:01:32;;;;;;;6.28;2.75;;;2.80;99.90;;;;;;6337408;22;20058;-88
2023/04/03 03:03:59;;;;;;;5.57;2.35;;;2.70;99.90;;;;;;6365969;22;20067;-84
2023/04/03 03:06:24;;;;;;;6.05;2.47;;;2.70;99.90;;;;;;6365280;22;20026;-88
2023/04/03 03:08:50;;;;;;;4.35;2.00;;;2.70;99.90;;;;;;6365768;22;20014;-87
2023/04/03 03:11:16;;;;;;;4.25;2.55;;;2.70;99.90;;;;;;6365678;22;20029;-87
2023/04/03 03:13:42;;;;;;;3.65;2.50;;;2.70;99.90;;;;;;6337190;22;20370;-87
2023/04/03 03:16:08;;;;;;;5.72;2.97;;;2.70;99.90;;;;;;6365032;22;20025;-85
2023/04/03 03:18:35;;;;;;;4.57;2.40;;;2.60;99.90;;;;;;6364871;22;20014;-86
2023/04/03 03:21:02;;;;;;;5.15;1.92;;;2.60;99.90;;;;;;6365780;22;20072;-87
2023/04/03 03:23:29;;;;;;;6.55;2.70;;;2.60;99.90;;;;;;6365336;22;20124;-88
2023/04/03 03:25:57;;;;;;;5.32;2.72;;;2.50;99.90;;;;;;6337307;22;20022;-88
2023/04/03 03:28:23;;;;;;;5.13;2.60;;;2.50;99.90;;;;;;6338845;22;20018;-87
2023/04/03 03:30:49;;;;;;;3.60;2.58;;;2.50;99.90;;;;;;6341072;22;20022;-89
2023/04/03 03:33:15;;;;;;;7.35;2.30;;;2.40;99.90;;;;;;6339133;22;20018;-89
2023/04/03 03:35:41;;;;;;;4.22;2.55;;;2.40;99.90;;;;;;6337917;22;20057;-87
2023/04/03 03:38:07;;;;;;;5.30;2.35;;;2.40;99.90;;;;;;6337308;22;20385;-87
2023/04/03 03:40:32;;;;;;;3.22;2.25;;;2.50;99.90;;;;;;6337810;22;20057;-88
2023/04/03 03:42:58;;;;;;;6.93;2.47;;;2.40;99.90;;;;;;6367043;22;20086;-89
2023/04/03 03:45:24;;;;;;;4.25;2.38;;;2.40;99.90;;;;;;6367456;22;20011;-90
2023/04/03 03:47:50;;;;;;;8.40;2.60;;;2.40;99.90;;;;;;6367174;22;20091;-88
2023/04/03 03:50:16;;;;;;;5.57;1.83;;;2.40;99.90;;;;;;6365381;22;20392;-88
2023/04/03 03:52:42;;;;;;;4.22;2.53;;;2.40;99.90;;;;;;6367966;22;20094;-86
2023/04/03 03:55:08;;;;;;;3.42;2.20;;;2.50;99.90;;;;;;6340335;22;20033;-87
2023/04/03 03:57:33;;;;;;;5.13;2.45;;;2.40;99.90;;;;;;6345491;22;20023;-87
2023/04/03 03:59:59;;;;;;;6.20;2.60;;;2.40;99.90;;;;;;6342552;22;20044;-89
2023/04/03 04:02:25;;;;;;;5.82;2.22;;;2.40;99.90;;;;;;6339465;22;20353;-89
2023/04/03 04:04:50;;;;;;;5.90;2.70;;;2.30;99.90;;;;;;6367808;22;20026;-88
2023/04/03 04:07:16;;;;;;;6.68;2.85;;;2.40;99.90;;;;;;6368671;22;20027;-89
2023/04/03 04:09:42;;;;;;;6.03;2.33;;;2.30;99.90;;;;;;6340615;22;20294;-89
2023/04/03 04:12:07;;;;;;;6.35;2.35;;;2.30;99.90;;;;;;6339757;22;20458;-89
2023/04/03 04:14:33;;;;;;;4.05;2.13;;;2.30;99.90;;;;;;6368256;22;20010;-89
2023/04/03 04:16:59;;;;;;;4.15;2.60;;;2.30;99.90;;;;;;6369036;22;20114;-87
2023/04/03 04:19:25;;;;;;;5.65;2.40;;;2.30;99.90;;;;;;6340693;22;20022;-90
2023/04/03 04:21:50;;;;;;;6.35;2.28;;;2.30;99.90;;;;;;6340060;22;20816;-89
2023/04/03 04:24:16;;;;;;;6.35;2.53;;;2.30;99.90;;;;;;6340255;22;20026;-89
2023/04/03 04:26:41;;;;;;;8.68;2.70;;;2.20;99.90;;;;;;6339664;22;20030;-87
2023/04/03 04:29:09;;;;;;;8.70;2.55;;;2.20;99.90;;;;;;6314119;22;20050;-89
2023/04/03 04:31:35;;;;;;;4.63;2.50;;;2.20;99.90;;;;;;6367718;22;20029;-89
2023/04/03 04:34:01;;;;;;;6.15;2.65;;;2.20;99.90;;;;;;6367198;22;20090;-87
2023/04/03 04:36:27;;;;;;;6.65;2.33;;;2.20;99.90;;;;;;6367460;22;20453;-87
2023/04/03 04:38:52;;;;;;;3.78;2.50;;;2.10;99.90;;;;;;6339164;22;20014;-88
2023/04/03 04:41:22;;;;;;;7.75;2.53;;;2.10;99.90;;;;;;6339527;22;20040;-90
2023/04/03 04:43:51;;;;;;;4.72;2.67;;;2.10;99.90;;;;;;6313145;22;20079;-87
2023/04/03 04:46:18;;;;;;;4.22;2.58;;;2.00;99.90;;;;;;6367180;22;20093;-89
2023/04/03 04:48:44;;;;;;;3.70;2.38;;;2.00;99.90;;;;;;6339099;22;20029;-87
2023/04/03 04:51:10;;;;;;;6.22;2.80;;;2.00;99.90;;;;;;6367870;22;20029;-88
2023/04/03 04:53:36;;;;;;;2.70;2.30;;;1.90;99.90;;;;;;6365805;22;20025;-87
2023/04/03 04:56:02;;;;;;;9.13;3.17;;;2.00;99.90;;;;;;6365090;22;20018;-86
2023/04/03 04:58:27;;;;;;;5.38;2.72;;;1.90;99.90;;;;;;6337669;22;20071;-89
2023/04/03 05:01:04;;;;;;;5.72;2.53;;;1.90;99.90;;;;;;6336366;22;20018;-87
2023/04/03 05:03:30;;;;;;;4.32;2.47;;;1.90;99.90;;;;;;6367032;22;20010;-88
2023/04/03 05:05:55;;;;;;;5.72;2.70;;;1.90;99.90;;;;;;6368490;22;20029;-90
2023/04/03 05:08:21;;;;;;;3.28;2.40;;;1.90;99.90;;;;;;6340882;22;20026;-86
2023/04/03 05:10:47;;;;;;;5.15;2.50;;;1.90;99.90;;;;;;6340971;22;20019;-88
2023/04/03 05:13:13;;;;;;;4.25;2.20;;;1.90;99.90;;;;;;6369959;22;20483;-88
2023/04/03 05:15:38;;;;;;;12.93;3.65;;;1.90;99.90;;;;;;6368388;22;20083;-88
2023/04/03 05:18:04;;;;;;;5.40;2.40;;;1.80;99.90;;;;;;6341153;22;20097;-87
2023/04/03 05:20:31;;;;;;;6.80;2.53;;;1.80;99.90;;;;;;6342863;22;20029;-88
2023/04/03 05:22:57;;;;;;;2.30;2.08;;;1.80;99.90;;;;;;6340931;22;20117;-88
2023/04/03 05:25:23;;;;;;;6.25;2.40;;;1.70;99.90;;;;;;6369265;22;20361;-90
2023/04/03 05:27:49;;;;;;;3.85;2.38;;;1.90;99.90;;;;;;6370033;22;20102;-92
2023/04/03 05:30:15;;;;;;;7.22;2.83;;;1.80;99.90;;;;;;6371600;22;20650;-91
2023/04/03 05:32:42;;;;;;;4.22;1.98;;;1.80;99.90;;;;;;6342625;22;20094;-90
2023/04/03 05:35:08;;;;;;;4.63;2.63;;;1.80;99.90;;;;;;6342248;22;20064;-90
2023/04/03 05:37:34;;;;;;;8.23;2.90;;;1.90;99.90;;;;;;6340629;22;20022;-90
2023/04/03 05:40:00;;;;;;;5.85;3.28;;;2.00;99.90;;;;;;6371550;22;20006;-89
2023/04/03 05:42:25;;;;;;;4.70;2.53;;;2.00;99.90;;;;;;6371687;22;20014;-93
2023/04/03 05:44:51;;;;;;;5.93;2.63;;;2.10;99.90;;;;;;6345031;22;20033;-90
2023/04/03 05:47:18;;;;;;;4.22;2.20;;;2.20;99.90;;;;;;6345960;22;20029;-92
2023/04/03 05:49:45;;;;;;;4.60;2.25;;;2.30;99.90;;;;;;6346761;22;20022;-91
2023/04/03 05:52:20;;;;;;;6.07;2.85;;;2.30;99.90;;;;;;6372424;22;20043;-91
2023/04/03 05:54:47;;;;;;;7.07;2.30;;;2.40;99.90;;;;;;6343228;22;20022;-91
2023/04/03 05:57:15;;;;;;;5.10;2.35;;;2.50;99.90;;;;;;6371752;22;20130;-92
2023/04/03 05:59:42;;;;;;;4.60;2.47;;;2.50;99.90;;;;;;6344207;22;20026;-86
2023/04/03 06:02:15;;;;;;;8.70;2.42;;;2.60;99.90;;;;;;6369723;22;20388;-88
2023/04/03 06:04:41;;;;;;;3.28;2.38;;;2.60;99.90;;;;;;6370889;22;20022;-90
2023/04/03 06:07:07;;;;;;;5.95;2.45;;;2.50;99.90;;;;;;6368289;22;20251;-87
2023/04/03 06:09:33;;;;;;;4.15;2.50;;;2.60;99.90;;;;;;6338370;22;20027;-85
2023/04/03 06:11:59;;;;;;;2.55;2.13;;;2.70;99.90;;;;;;6366285;22;20104;-85
2023/04/03 06:14:26;;;;;;;9.95;2.55;;;2.80;99.90;;;;;;6337979;22;20064;-84
2023/04/03 06:16:53;;;;;;;6.80;2.17;;;2.80;99.90;;;;;;6311676;22;20028;-85
2023/04/03 06:19:20;;;;;;;2.75;1.83;;;2.90;99.90;;;;;;6311670;22;20018;-85
2023/04/03 06:21:47;;;;;;;7.75;2.83;;;3.00;99.90;;;;;;6366837;22;20014;-70
2023/04/03 06:24:15;;;;;;;5.32;2.45;;;3.00;99.90;;;;;;6338439;22;20057;-86
2023/04/03 06:26:41;;;;;;;7.78;2.05;;;3.10;99.90;;;;;;6339078;22;20118;-85
2023/04/03 06:29:08;;;;;;;8.90;2.40;;;3.10;99.90;;;;;;6339009;22;20120;-87
2023/04/03 06:31:34;;;;;;;5.13;2.00;;;3.20;99.90;;;;;;6337712;22;20025;-87
2023/04/03 06:34:00;;;;;;;8.65;2.47;;;3.10;99.90;;;;;;6365800;22;20021;-86
2023/04/03 06:36:26;;;;;;;5.05;2.42;;;3.20;99.90;;;;;;6365167;22;20014;-85
2023/04/03 06:38:51;;;;;;;5.35;2.88;;;3.30;99.90;;;;;;6345420;22;20030;-85
2023/04/03 06:41:17;;;;;;;5.72;2.38;;;3.30;99.90;;;;;;6361213;22;20015;-85
2023/04/03 06:43:46;;;;;;;7.88;2.55;;;3.40;99.90;;;;;;6338886;22;20057;-85
2023/04/03 06:46:17;;;;;;;4.05;1.90;;;3.40;99.90;;;;;;6340092;22;20090;-86
2023/04/03 06:48:44;;;;;;;6.20;2.33;;;3.40;99.90;;;;;;6338350;22;20028;-86
2023/04/03 06:51:27;;;;;;;4.07;1.98;;;3.40;99.90;;;;;;6365720;22;20018;-87
2023/04/03 06:53:54;;;;;;;3.90;2.05;;;3.50;99.90;;;;;;6365767;22;20019;-86
2023/04/03 06:56:21;;;;;;;4.68;2.28;;;3.60;99.90;;;;;;6365452;22;20018;-85
2023/04/03 06:58:47;;;;;;;4.43;2.42;;;3.50;99.90;;;;;;6365267;22;20014;-85
2023/04/03 07:01:17;;;;;;;6.88;2.13;;;3.60;99.90;;;;;;6366434;22;20014;-86
2023/04/03 07:03:43;;;;;;;7.93;2.13;;;3.50;99.90;;;;;;6338633;22;20018;-85
2023/04/03 07:06:12;;;;;;;4.72;1.85;;;3.60;99.90;;;;;;6366469;22;20022;-82
2023/04/03 07:08:38;;;;;;;3.78;1.70;;;3.60;99.90;;;;;;6364415;22;20319;-78
2023/04/03 07:11:05;;;;;;;3.63;2.03;;;3.90;99.90;;;;;;6336456;22;20018;-79
2023/04/03 07:13:31;;;;;;;7.22;2.35;;;3.80;99.90;;;;;;6365506;22;20018;-84
2023/04/03 07:15:57;;;;;;;5.68;2.13;;;3.80;99.90;;;;;;6365634;22;20097;-84
2023/04/03 07:18:23;;;;;;;2.50;2.10;;;4.10;99.90;;;;;;6364824;22;20041;-80
2023/04/03 07:20:48;;;;;;;6.63;2.13;;;3.90;99.90;;;;;;6335022;22;20409;-70
2023/04/03 07:23:14;;;;;;;6.15;2.22;;;3.90;99.90;;;;;;6364747;22;20440;-81
2023/04/03 07:25:48;;;;;;;3.47;1.98;;;4.00;99.90;;;;;;6337170;22;20026;-85
2023/04/03 07:28:15;;;;;;;8.43;2.33;;;4.00;99.90;;;;;;6310745;22;20018;-81
2023/04/03 07:30:45;;;;;;;4.25;2.50;;;3.90;99.90;;;;;;6336933;22;20022;-81
2023/04/03 07:33:12;;;;;;;6.47;2.35;;;3.90;99.90;;;;;;6337358;22;20139;-81
2023/04/03 07:35:39;;;;;;;4.85;2.22;;;3.90;99.90;;;;;;6364280;22;20577;-77
2023/04/03 07:38:05;;;;;;;5.05;1.83;;;4.00;99.90;;;;;;6364618;22;20010;-81
2023/04/03 07:40:32;;;;;;;6.10;2.08;;;4.10;99.90;;;;;;6337072;22;20026;-73
2023/04/03 07:42:58;;;;;;;4.28;2.13;;;4.10;99.90;;;;;;6337095;22;20015;-80
2023/04/03 07:45:24;;;;;;;2.28;2.00;;;4.20;99.90;;;;;;6364691;22;20060;-76
2023/04/03 07:47:50;;;;;;;4.90;2.65;;;4.30;99.90;;;;;;6365672;22;20294;-79
2023/04/03 07:50:16;;;;;;;6.57;2.00;;;4.20;99.90;;;;;;6364693;22;20029;-79
2023/04/03 07:52:42;;;;;;;4.55;1.67;;;4.30;99.90;;;;;;6364866;22;20014;-79
2023/04/03 07:55:08;;;;;;;4.07;1.70;;;4.40;99.90;;;;;;6364729;22;20018;-79
2023/04/03 07:57:34;;;;;;;9.20;2.10;;;4.30;99.90;;;;;;6364707;22;20041;-78
2023/04/03 08:00:01;;;;;;;1.92;1.48;;;4.50;99.90;;;;;;6336279;22;20022;-79
2023/04/03 08:02:26;;;;;;;3.00;1.83;;;4.60;99.90;;;;;;6364731;22;20098;-79
2023/04/03 08:04:52;;;;;;;4.75;1.90;;;4.60;99.90;;;;;;6365072;22;20140;-79
2023/04/03 08:07:18;;;;;;;1.98;1.73;;;4.70;99.90;;;;;;6364857;22;20011;-79
2023/04/03 08:09:44;;;;;;;7.10;2.70;;;4.70;99.90;;;;;;6364521;22;20032;-79
2023/04/03 08:12:11;;;;;;;3.08;1.95;;;4.70;99.90;;;;;;6336463;22;20067;-78
2023/04/03 08:14:37;;;;;;;3.08;1.85;;;4.80;99.90;;;;;;6336468;22;20383;-85
2023/04/03 08:17:04;;;;;;;3.92;2.10;;;5.00;99.90;;;;;;6364882;22;20010;-81
2023/04/03 08:19:31;;;;;;;3.97;1.83;;;5.10;99.90;;;;;;6364852;22;20041;-87
2023/04/03 08:21:58;;;;;;;2.58;1.75;;;5.10;99.90;;;;;;6338083;22;20294;-80
2023/04/03 08:24:25;;;;;;;3.05;2.00;;;5.00;99.90;;;;;;6337382;22;20027;-81
2023/04/03 08:26:51;;;;;;;4.55;1.85;;;5.10;99.90;;;;;;6364268;22;20019;-76
2023/04/03 08:29:16;;;;;;;2.72;1.65;;;5.20;99.90;;;;;;6364367;22;20018;-76
2023/04/03 08:31:42;;;;;;;4.13;1.80;;;5.20;99.90;;;;;;6336176;22;20379;-81
2023/04/03 08:34:08;;;;;;;2.95;1.85;;;5.20;99.90;;;;;;6336827;22;20014;-81
2023/04/03 08:36:34;;;;;;;4.13;1.90;;;5.20;99.90;;;;;;6366923;22;20026;-81
2023/04/03 08:39:00;;;;;;;1.65;1.55;;;5.40;99.90;;;;;;6338942;22;20014;-82
2023/04/03 08:41:35;;;;;;;5.15;2.05;;;5.30;99.90;;;;;;6338697;22;20773;-81
2023/04/03 08:44:25;;;;;;;2.08;1.33;;;5.30;99.90;;;;;;6338138;22;20022;-81
2023/04/03 08:46:54;;;;;;;4.95;1.63;;;5.30;99.90;;;;;;6338018;22;20399;-82
2023/04/03 08:49:31;;;;;;;3.55;1.60;;;5.40;99.90;;;;;;6338604;22;20144;-82
2023/04/03 08:52:00;;;;;;;2.08;1.48;;;5.50;99.90;;;;;;6338667;22;20071;-82
2023/04/03 08:54:41;;;;;;;5.13;1.52;;;5.60;99.90;;;;;;6366599;22;20093;-83
2023/04/03 08:57:07;;;;;;;6.72;1.80;;;5.70;99.90;;;;;;6367412;22;20022;-82
2023/04/03 08:59:38;;;;;;;2.97;2.17;;;5.70;99.90;;;;;;6367213;22;20506;-82
2023/04/03 09:02:33;;;;;;;2.50;2.23;;;5.70;99.90;;;;;;6366102;22;20007;-82
2023/04/03 09:05:01;;;;;;;6.18;1.80;;;5.70;99.90;;;;;;6337276;22;20567;-83
2023/04/03 09:07:39;;;;;;;2.92;1.77;;;5.80;99.90;;;;;;6367677;22;20030;-83
2023/04/03 09:10:05;;;;;;;3.63;1.52;;;5.90;99.90;;;;;;6367127;22;20086;-83
2023/04/03 09:12:41;;;;;;;2.78;1.50;;;5.90;99.90;;;;;;6366716;22;20023;-82
2023/04/03 09:15:16;;;;;;;5.65;1.65;;;6.10;99.90;;;;;;6366254;22;20026;-81
2023/04/03 09:17:59;;;;;;;4.13;1.40;;;6.30;99.90;;;;;;6338538;22;20033;-82
2023/04/03 09:20:28;;;;;;;5.43;2.22;;;6.30;99.90;;;;;;6338648;22;20014;-83
2023/04/03 09:22:55;;;;;;;3.22;1.70;;;6.40;99.90;;;;;;6367014;22;20068;-84
2023/04/03 09:25:28;;;;;;;2.83;1.50;;;6.40;99.90;;;;;;6339209;22;20054;-83
2023/04/03 09:27:54;;;;;;;2.50;1.50;;;6.50;99.90;;;;;;6338959;22;20022;-75
2023/04/03 09:30:25;;;;;;;1.52;1.27;;;6.60;99.90;;;;;;6338111;22;20087;-76
2023/04/03 09:32:53;;;;;;;5.93;1.80;;;6.50;99.90;;;;;;6366286;22;20436;-76
2023/04/03 09:35:31;;;;;;;2.38;1.67;;;6.60;99.90;;;;;;6338094;22;20055;-76
2023/04/03 09:38:13;;;;;;;3.47;2.38;;;6.60;99.90;;;;;;6366153;22;20397;-76
2023/04/03 09:40:40;;;;;;;;;;;6.80;99.90;;;;;;6338685;22;20019;-76
2023/04/03 09:43:28;;;;;;;3.67;1.33;;;6.70;99.50;;;;;;6365769;22;19978;-76
2023/04/03 09:45:55;;;;;;;4.00;1.40;;;6.70;99.90;;;;;;6336932;22;20019;-74
2023/04/03 09:48:24;;;;;;;3.70;1.63;;;6.80;99.90;;;;;;6336998;22;20018;-74
2023/04/03 09:50:58;;;;;;;4.10;1.52;;;7.00;99.90;;;;;;6365706;22;20014;-75
2023/04/03 09:53:35;;;;;;;2.17;1.55;;;6.80;99.90;;;;;;6365493;22;20007;-78
2023/04/03 09:56:04;;;;;;;5.10;2.08;;;6.90;99.90;;;;;;6337339;22;20045;-77
2023/04/03 09:58:35;;;;;;;3.58;1.70;;;6.90;99.90;;;;;;6365376;22;20066;-76
2023/04/03 10:01:02;;;;;;;4.47;1.55;;;7.00;99.90;;;;;;6365879;22;20037;-76
2023/04/03 10:03:35;;;;;;;2.55;1.17;;;6.90;99.00;;;;;;6365419;22;20014;-74
2023/04/03 10:06:02;;;;;;;2.03;1.33;;;6.90;98.30;;;;;;6365458;22;20025;-75
2023/04/03 10:08:32;;;;;;;3.30;1.50;;;7.00;98.70;;;;;;6365019;22;20014;-77
2023/04/03 10:11:13;;;;;;;3.03;1.48;;;7.10;99.90;;;;;;6365909;22;20370;-80
2023/04/03 10:14:04;;;;;;;2.28;1.40;;;7.00;97.80;;;;;;6337240;22;20101;-77
2023/04/03 10:16:41;;;;;;;2.38;1.38;;;7.00;96.30;;;;;;6337565;22;20023;-81
2023/04/03 10:19:33;;;;;;;3.38;1.67;;;7.30;99.40;;;;;;6366383;22;20374;-81
2023/04/03 10:22:03;;;;;;;4.18;1.52;;;7.30;97.30;;;;;;6329262;22;20020;-82
2023/04/03 10:24:44;;;;;;;2.08;1.50;;;7.50;99.20;;;;;;6366902;22;20014;-75
2023/04/03 10:27:22;;;;;;;2.03;1.30;;;7.40;99.30;;;;;;6337164;22;20018;-79
2023/04/03 10:30:24;;;;;;;1.40;1.30;;;7.60;99.90;;;;;;6336759;22;20075;-79
2023/04/03 10:33:08;;;;;;;2.22;1.30;;;7.70;99.50;;;;;;6365326;22;20159;-79
2023/04/03 10:35:58;;;;;;;2.28;1.38;;;7.80;97.10;;;;;;6337043;22;20064;-80
2023/04/03 10:38:38;;;;;;;3.85;1.48;;;7.90;99.40;;;;;;6365816;22;20294;-82
2023/04/03 10:41:11;;;;;;;1.98;1.40;;;7.70;97.60;;;;;;6340921;22;20098;-85
2023/04/03 10:43:47;;;;;;;;;;;7.90;98.20;;;;;;6338478;22;20132;-84
2023/04/03 10:46:28;;;;;;;2.88;1.40;;;8.00;99.10;;;;;;6337707;22;19910;-84
2023/04/03 10:49:09;;;;;;;3.75;1.15;;;8.00;97.50;;;;;;6337499;22;20033;-85
2023/04/03 10:51:41;;;;;;;1.73;1.50;;;7.90;96.70;;;;;;6365484;22;20409;-84
2023/04/03 10:54:24;;;;;;;1.98;1.77;;;7.90;99.80;;;;;;6367162;22;20016;-86
2023/04/03 10:56:57;;;;;;;2.50;1.75;;;7.90;93.40;;;;;;6366375;22;20095;-85
2023/04/03 11:00:04;;;;;;;2.97;1.73;;;7.80;97.40;;;;;;6337594;22;20018;-84
2023/04/03 11:02:31;;;;;;;1.92;1.40;;;7.80;96.00;;;;;;6341012;22;20057;-87
2023/04/03 11:05:11;;;;;;;5.38;1.52;;;7.80;99.90;;;;;;6337826;22;20034;-85
2023/04/03 11:07:47;;;;;;;1.73;1.48;;;8.00;99.90;;;;;;6337713;22;20014;-85
2023/04/03 11:10:30;;;;;;;1.90;1.38;;;8.00;97.80;;;;;;6366181;22;20023;-85
2023/04/03 11:13:11;;;;;;;2.55;1.35;;;8.10;97.90;;;;;;6364814;22;20633;-71
2023/04/03 11:15:37;;;;;;;2.35;1.35;;;8.00;97.90;;;;;;6364058;22;20025;-78
2023/04/03 11:18:11;;;;;;;1.75;1.65;;;8.00;98.80;;;;;;6364069;22;20014;-78
2023/04/03 11:20:39;;;;;;;1.90;1.45;;;7.80;95.90;;;;;;6364607;22;20018;-78
2023/04/03 11:23:33;;;;;;;2.00;1.65;;;7.70;97.20;;;;;;6364389;22;20025;-78
2023/04/03 11:26:07;;;;;;;4.85;1.58;;;7.90;99.30;;;;;;6363945;22;20322;-77
2023/04/03 11:28:33;;;;;;;2.13;1.50;;;8.00;98.10;;;;;;6364523;22;20029;-78
2023/04/03 11:31:40;;;;;;;1.83;1.45;;;7.90;95.70;;;;;;6364070;22;20340;-77
2023/04/03 11:34:27;;;;;;;2.13;1.40;;;8.00;97.60;;;;;;6364317;22;20083;-78
2023/04/03 11:37:01;;;;;;;2.95;1.60;;;8.10;97.90;;;;;;6364202;22;20015;-77
2023/04/03 11:39:34;;;;;;;3.58;1.42;;;8.10;99.50;;;;;;6364599;22;20018;-78
2023/04/03 11:42:18;;;;;;;;;;;8.00;95.80;;;;;;6365040;22;20010;-78
2023/04/03 11:44:44;;;;;;;1.92;1.50;;;8.10;95.90;;;;;;6364393;22;19984;-77
2023/04/03 11:47:12;;;;;;;2.35;1.48;;;8.10;98.00;;;;;;6336377;22;20029;-78
2023/04/03 11:49:59;;;;;;;2.28;1.50;;;8.10;99.00;;;;;;6336780;22;20094;-77
2023/04/03 11:52:43;;;;;;;5.40;1.60;;;8.10;95.80;;;;;;6336989;22;20408;-78
2023/04/03 11:55:23;;;;;;;4.82;1.60;;;8.00;97.20;;;;;;6335948;22;20024;-78
2023/04/03 11:57:58;;;;;;;2.28;1.77;;;8.00;96.20;;;;;;6310303;22;20022;-79
2023/04/03 12:00:46;;;;;;;2.30;1.42;;;8.10;96.90;;;;;;6364808;22;20378;-78
2023/04/03 12:03:26;;;;;;;4.45;1.45;;;8.00;95.00;;;;;;6336467;22;20097;-78
2023/04/03 12:06:04;;;;;;;3.85;1.35;;;8.20;95.20;;;;;;6336024;22;20021;-78
2023/04/03 12:08:50;;;;;;;1.45;1.20;;;8.10;95.30;;;;;;6364217;22;20029;-78
2023/04/03 12:11:28;;;;;;;1.80;1.70;;;8.20;97.10;;;;;;6365070;22;20046;-78
2023/04/03 12:13:57;;;;;;;7.55;1.80;;;8.30;97.90;;;;;;6338367;22;20015;-77
2023/04/03 12:16:31;;;;;;;6.07;2.47;;;8.40;98.20;;;;;;6366516;22;20014;-77
2023/04/03 12:19:14;;;;;;;1.67;1.40;;;8.30;95.00;;;;;;6366988;22;20049;-77
2023/04/03 12:21:46;;;;;;;3.28;1.40;;;8.40;98.30;;;;;;6366562;22;20014;-79
2023/04/03 12:24:21;;;;;;;2.78;1.50;;;8.50;96.90;;;;;;6338215;22;20437;-77
2023/04/03 12:27:09;;;;;;;2.95;1.70;;;8.50;93.80;;;;;;6366693;22;20341;-78
2023/04/03 12:29:44;;;;;;;4.63;1.52;;;8.60;96.70;;;;;;6349383;22;20029;-78
2023/04/03 12:32:22;;;;;;;3.95;1.70;;;8.50;94.80;;;;;;6338190;22;20014;-77
2023/04/03 12:35:14;;;;;;;2.50;1.63;;;8.30;93.00;;;;;;6337899;22;20018;-76
2023/04/03 12:37:53;;;;;;;2.75;2.03;;;8.40;94.80;;;;;;6366182;22;20015;-78
2023/04/03 12:40:47;;;;;;;1.50;1.40;;;8.40;97.50;;;;;;6337945;22;20026;-78
2023/04/03 12:43:35;;;;;;;2.38;1.58;;;8.40;97.10;;;;;;6302216;22;20018;-77
2023/04/03 12:46:06;;;;;;;4.18;1.80;;;8.50;96.10;;;;;;6337713;22;20022;-77
2023/04/03 12:48:44;;;;;;;2.97;1.88;;;8.60;96.50;;;;;;6366347;22;20044;-78
2023/04/03 12:51:22;;;;;;;2.95;1.60;;;8.70;97.00;;;;;;6365916;22;20018;-77
2023/04/03 12:53:51;;;;;;;3.25;1.85;;;8.60;96.70;;;;;;6337453;22;20018;-77
2023/04/03 12:56:20;;;;;;;3.13;1.77;;;8.50;94.30;;;;;;6337850;22;20121;-78
2023/04/03 12:58:47;;;;;;;2.22;1.58;;;8.60;96.50;;;;;;6366357;22;20444;-77
2023/04/03 13:01:18;;;;;;;4.05;1.45;;;8.60;99.20;;;;;;6366038;22;20022;-77
2023/04/03 13:03:49;;;;;;;2.20;1.90;;;8.60;96.30;;;;;;6365979;22;20021;-77
2023/04/03 13:06:41;;;;;;;2.78;1.80;;;8.70;96.40;;;;;;6337958;22;20022;-76
2023/04/03 13:09:25;;;;;;;1.63;1.53;;;8.80;97.70;;;;;;6352658;22;20026;-77
2023/04/03 13:12:13;;;;;;;3.97;1.67;;;8.60;95.50;;;;;;6366553;22;20557;-78
2023/04/03 13:14:40;;;;;;;4.28;1.85;;;8.70;95.90;;;;;;6365171;22;20024;-77
2023/04/03 13:17:16;;;;;;;3.58;1.77;;;8.70;96.10;;;;;;6365748;22;20444;-77
2023/04/03 13:19:45;;;;;;;4.07;1.73;;;8.80;95.30;;;;;;6366202;22;20114;-77